createdAt,value
2019-05-14T00:01:54.123Z,2.07
2019-05-14T00:04:27.945Z,1.80
2019-05-14T00:07:02.494Z,2.00
2019-05-14T00:09:35.256Z,1.87
2019-05-14T00:12:08.004Z,1.67
2019-05-14T00:14:44.125Z,1.80
2019-05-14T00:17:16.873Z,2.00
2019-05-14T00:20:05.993Z,1.97
2019-05-14T00:22:24.443Z,1.77
2019-05-14T00:24:57.234Z,1.73
2019-05-14T00:27:31.237Z,1.80
2019-05-14T00:30:05.353Z,2.00
2019-05-14T00:32:41.469Z,1.83
2019-05-14T00:35:15.173Z,1.77
2019-05-14T00:37:47.859Z,1.70
2019-05-14T00:40:22.060Z,2.00
2019-05-14T00:42:54.864Z,2.07
2019-05-14T00:45:27.781Z,2.17
2019-05-14T00:48:01.678Z,1.80
2019-05-14T00:50:34.556Z,2.03
2019-05-14T00:53:07.303Z,1.80
2019-05-14T00:55:41.952Z,1.70
2019-05-14T00:58:14.708Z,1.60
2019-05-14T01:00:47.340Z,1.60
2019-05-14T01:03:22.318Z,1.80
2019-05-14T01:05:56.024Z,1.77
2019-05-14T01:08:28.709Z,2.00
2019-05-14T01:11:01.749Z,2.00
2019-05-14T01:13:35.683Z,1.83
2019-05-14T01:16:08.350Z,1.70
2019-05-14T01:18:41.507Z,1.70
2019-05-14T01:21:14.430Z,2.13
2019-05-14T01:23:47.136Z,1.70
2019-05-14T01:26:21.806Z,1.77
2019-05-14T01:28:54.361Z,2.33
2019-05-14T01:31:27.139Z,1.93
2019-05-14T01:34:01.974Z,1.97
2019-05-14T01:36:35.731Z,2.00
2019-05-14T01:39:08.550Z,2.17
2019-05-14T01:41:42.367Z,2.13
2019-05-14T01:44:15.269Z,2.00
2019-05-14T01:46:47.985Z,2.00
2019-05-14T01:49:22.159Z,1.70
2019-05-14T01:51:54.984Z,1.90
2019-05-14T01:54:27.755Z,2.00
2019-05-14T01:57:02.087Z,1.70
2019-05-14T01:59:35.230Z,1.80
2019-05-14T02:02:07.967Z,1.97
2019-05-14T02:04:42.649Z,1.97
2019-05-14T02:07:16.111Z,2.13
2019-05-14T02:09:49.087Z,2.17
2019-05-14T02:12:22.950Z,1.80
2019-05-14T02:14:55.581Z,2.30
2019-05-14T02:17:31.770Z,2.00
2019-05-14T02:20:05.354Z,1.90
2019-05-14T02:22:37.985Z,1.90
2019-05-14T02:25:12.341Z,2.60
2019-05-14T02:27:44.981Z,2.00
2019-05-14T02:30:20.271Z,2.10
2019-05-14T02:32:53.516Z,2.17
2019-05-14T02:35:29.816Z,2.20
2019-05-14T02:38:02.523Z,2.33
2019-05-14T02:40:35.314Z,2.33
2019-05-14T02:43:09.657Z,2.50
2019-05-14T02:46:00.743Z,2.10
2019-05-14T02:48:20.210Z,2.47
2019-05-14T02:50:52.973Z,2.33
2019-05-14T02:53:25.596Z,2.33
2019-05-14T02:55:59.913Z,2.23
2019-05-14T02:58:32.619Z,2.43
2019-05-14T03:01:05.409Z,2.40
2019-05-14T03:03:40.084Z,2.53
2019-05-14T03:06:12.701Z,2.60
2019-05-14T03:08:45.286Z,2.53
2019-05-14T03:11:20.108Z,2.67
2019-05-14T03:13:54.101Z,2.60
2019-05-14T03:16:32.621Z,2.63
2019-05-14T03:19:01.422Z,2.70
2019-05-14T03:21:34.241Z,2.60
2019-05-14T03:24:09.388Z,2.60
2019-05-14T03:26:41.531Z,2.70
2019-05-14T03:29:14.348Z,3.20
2019-05-14T03:31:51.954Z,2.57
2019-05-14T03:34:22.625Z,2.67
2019-05-14T03:36:55.725Z,2.50
2019-05-14T03:39:29.601Z,2.87
2019-05-14T03:42:02.564Z,3.10
2019-05-14T03:44:35.230Z,3.13
2019-05-14T03:47:10.256Z,2.57
2019-05-14T03:49:43.651Z,3.10
2019-05-14T03:52:19.628Z,3.17
2019-05-14T03:54:50.983Z,3.20
2019-05-14T03:57:25.113Z,3.30
2019-05-14T03:59:59.730Z,3.30
2019-05-14T04:02:32.751Z,3.43
2019-05-14T04:05:09.179Z,3.27
2019-05-14T04:07:41.465Z,3.40
2019-05-14T04:10:14.272Z,3.70
2019-05-14T04:12:49.115Z,4.13
2019-05-14T04:15:25.737Z,3.90
2019-05-14T04:17:59.722Z,3.70
2019-05-14T04:20:34.190Z,3.70
2019-05-14T04:23:09.443Z,3.47
2019-05-14T04:25:42.335Z,4.00
2019-05-14T04:28:22.536Z,4.00
2019-05-14T04:30:55.819Z,4.83
2019-05-14T04:33:30.273Z,4.27
2019-05-14T04:36:03.349Z,4.87
2019-05-14T04:38:36.050Z,5.07
2019-05-14T04:41:10.349Z,5.00
2019-05-14T04:43:44.379Z,5.33
2019-05-14T04:46:19.899Z,5.20
2019-05-14T04:48:51.704Z,5.70
2019-05-14T04:51:24.359Z,5.77
2019-05-14T04:53:59.820Z,6.00
2019-05-14T04:56:31.764Z,5.53
2019-05-14T04:59:04.672Z,5.70
2019-05-14T05:01:40.213Z,5.80
2019-05-14T05:04:11.920Z,6.80
2019-05-14T05:06:44.621Z,6.73
2019-05-14T05:09:20.002Z,6.63
2019-05-14T05:11:52.049Z,7.50
2019-05-14T05:14:25.934Z,6.73
2019-05-14T05:16:59.649Z,8.00
2019-05-14T05:19:32.656Z,8.40
2019-05-14T05:22:05.384Z,7.30
2019-05-14T05:24:38.251Z,7.20
2019-05-14T05:27:11.100Z,7.47
2019-05-14T05:29:43.807Z,7.70
2019-05-14T05:32:19.187Z,8.60
2019-05-14T05:34:51.083Z,9.80
2019-05-14T05:37:24.204Z,7.43
2019-05-14T05:39:58.398Z,8.93
2019-05-14T05:42:31.199Z,9.33
2019-05-14T05:45:04.552Z,7.50
2019-05-14T05:47:39.086Z,8.67
2019-05-14T05:50:12.144Z,8.67
2019-05-14T05:52:44.818Z,8.40
2019-05-14T05:55:19.218Z,9.10
2019-05-14T05:57:52.073Z,9.03
2019-05-14T06:00:35.931Z,8.10
2019-05-14T06:03:10.853Z,9.23
2019-05-14T06:05:43.278Z,10.30
2019-05-14T06:08:15.974Z,8.10
2019-05-14T06:10:49.096Z,8.53
2019-05-14T06:13:22.052Z,8.57
2019-05-14T06:15:54.800Z,8.93
2019-05-14T06:18:28.531Z,7.80
2019-05-14T06:21:01.594Z,8.87
2019-05-14T06:23:34.336Z,8.23
2019-05-14T06:26:11.495Z,8.30
2019-05-14T06:28:41.666Z,8.80
2019-05-14T06:31:14.366Z,8.67
2019-05-14T06:33:48.741Z,8.37
2019-05-14T06:36:21.795Z,8.37
2019-05-14T06:38:54.518Z,8.67
2019-05-14T06:41:28.350Z,8.87
2019-05-14T06:44:01.401Z,8.53
2019-05-14T06:46:34.155Z,8.97
2019-05-14T06:49:09.114Z,9.00
2019-05-14T06:51:41.508Z,9.23
2019-05-14T06:54:14.088Z,9.13
2019-05-14T06:56:48.817Z,8.47
2019-05-14T06:59:21.341Z,9.67
2019-05-14T07:01:54.022Z,9.13
2019-05-14T07:04:28.866Z,8.73
2019-05-14T07:07:02.496Z,8.80
2019-05-14T07:09:35.300Z,8.20
2019-05-14T07:12:09.103Z,8.83
2019-05-14T07:14:42.356Z,9.23
2019-05-14T07:17:15.210Z,8.50
2019-05-14T07:19:49.082Z,8.37
2019-05-14T07:22:23.931Z,8.20
2019-05-14T07:24:58.708Z,7.97
2019-05-14T07:27:31.194Z,8.23
2019-05-14T07:30:05.065Z,8.50
2019-05-14T07:32:39.498Z,11.93
2019-05-14T07:35:13.731Z,7.60
2019-05-14T07:37:48.728Z,8.20
2019-05-14T07:40:20.921Z,7.23
2019-05-14T07:42:53.727Z,7.13
2019-05-14T07:45:28.607Z,7.72
2019-05-14T07:48:00.964Z,7.45
2019-05-14T07:50:33.519Z,6.62
2019-05-14T07:53:08.444Z,6.72
2019-05-14T07:55:40.881Z,6.83
2019-05-14T07:58:13.681Z,7.20
2019-05-14T08:00:48.982Z,6.53
2019-05-14T08:03:20.994Z,6.62
2019-05-14T08:05:53.875Z,6.00
2019-05-14T08:08:29.067Z,6.60
2019-05-14T08:11:01.125Z,6.15
2019-05-14T08:13:33.889Z,5.90
2019-05-14T08:16:08.761Z,5.42
2019-05-14T08:18:41.327Z,5.58
2019-05-14T08:21:13.961Z,6.78
2019-05-14T08:23:48.141Z,5.60
2019-05-14T08:26:21.018Z,5.35
2019-05-14T08:28:53.679Z,4.00
2019-05-14T08:31:29.044Z,4.25
2019-05-14T08:34:04.842Z,3.87
2019-05-14T08:36:37.811Z,4.58
2019-05-14T08:39:10.137Z,4.72
2019-05-14T08:41:42.685Z,3.83
2019-05-14T08:44:15.342Z,4.10
2019-05-14T08:46:48.624Z,4.33
2019-05-14T08:49:37.207Z,4.42
2019-05-14T08:51:56.065Z,4.30
2019-05-14T08:54:28.865Z,4.78
2019-05-14T08:57:01.671Z,4.20
2019-05-14T08:59:34.349Z,3.85
2019-05-14T09:02:10.440Z,3.67
2019-05-14T09:04:43.377Z,3.85
2019-05-14T09:07:18.368Z,4.87
2019-05-14T09:09:50.673Z,3.15
2019-05-14T09:12:23.294Z,3.35
2019-05-14T09:14:58.692Z,3.20
2019-05-14T09:17:30.670Z,3.47
2019-05-14T09:20:07.108Z,2.65
2019-05-14T09:22:39.965Z,2.92
2019-05-14T09:25:13.143Z,2.90
2019-05-14T09:27:49.258Z,3.15
2019-05-14T09:30:22.983Z,3.00
2019-05-14T09:32:55.776Z,2.90
2019-05-14T09:35:29.251Z,2.90
2019-05-14T09:38:02.144Z,3.10
2019-05-14T09:40:34.859Z,2.55
2019-05-14T09:43:09.453Z,2.98
2019-05-14T09:45:42.319Z,2.80
2019-05-14T09:48:15.166Z,3.35
2019-05-14T09:50:49.797Z,3.85
2019-05-14T09:53:22.558Z,4.65
2019-05-14T09:59:28.011Z,3.40
2019-05-14T10:02:01.107Z,2.55
2019-05-14T10:04:39.223Z,2.58
2019-05-14T10:07:15.471Z,2.65
2019-05-14T10:09:49.074Z,2.80
2019-05-14T10:12:21.671Z,2.37
2019-05-14T10:14:54.431Z,2.52
2019-05-14T10:17:29.032Z,2.42
2019-05-14T10:20:01.753Z,2.02
2019-05-14T10:22:35.506Z,2.92
2019-05-14T10:25:09.295Z,2.52
2019-05-14T10:27:42.175Z,2.72
2019-05-14T10:30:15.185Z,5.92
2019-05-14T10:32:49.200Z,3.60
2019-05-14T10:35:22.139Z,2.62
2019-05-14T10:37:55.121Z,2.25
2019-05-14T10:40:29.229Z,2.42
2019-05-14T10:43:02.365Z,3.10
2019-05-14T10:45:35.164Z,2.85
2019-05-14T10:48:09.691Z,2.70
2019-05-14T10:50:56.373Z,3.10
2019-05-14T10:53:20.356Z,2.90
2019-05-14T10:55:52.599Z,2.62
2019-05-14T10:58:25.427Z,2.80
2019-05-14T11:00:58.933Z,2.87
2019-05-14T11:03:31.922Z,2.77
2019-05-14T11:06:05.623Z,3.02
2019-05-14T11:08:38.872Z,5.22
2019-05-14T11:11:13.462Z,2.60
2019-05-14T11:13:48.089Z,2.80
2019-05-14T11:16:22.252Z,3.08
2019-05-14T11:18:57.366Z,2.83
2019-05-14T11:21:30.328Z,3.22
2019-05-14T11:24:03.294Z,2.47
2019-05-14T11:26:38.887Z,2.95
2019-05-14T11:29:10.517Z,2.50
2019-05-14T11:31:43.208Z,2.47
2019-05-14T11:34:15.874Z,2.55
2019-05-14T11:36:49.664Z,13.18
2019-05-14T11:39:22.653Z,2.05
2019-05-14T11:41:55.238Z,2.47
2019-05-14T11:44:28.596Z,2.33
2019-05-14T11:47:02.710Z,2.50
2019-05-14T11:49:35.634Z,2.33
2019-05-14T11:52:11.504Z,2.02
2019-05-14T11:54:43.159Z,2.37
2019-05-14T11:57:15.893Z,2.58
2019-05-14T11:59:48.937Z,2.20
2019-05-14T12:02:22.817Z,2.12
2019-05-14T12:04:55.519Z,2.40
2019-05-14T12:07:28.278Z,2.60
2019-05-14T12:10:01.048Z,8.15
2019-05-14T12:12:35.245Z,2.58
2019-05-14T12:15:09.420Z,1.90
2019-05-14T12:17:42.266Z,2.20
2019-05-14T12:20:16.094Z,2.35
2019-05-14T12:22:48.961Z,1.90
2019-05-14T12:25:21.808Z,1.82
2019-05-14T12:27:54.504Z,2.27
2019-05-14T12:30:28.614Z,2.10
2019-05-14T12:33:01.837Z,2.20
2019-05-14T12:35:34.645Z,2.35
2019-05-14T12:38:09.886Z,1.98
2019-05-14T12:40:43.530Z,2.50
2019-05-14T12:43:18.614Z,2.10
2019-05-14T12:45:50.696Z,2.10
2019-05-14T12:48:23.456Z,2.00
2019-05-14T12:50:59.491Z,2.08
2019-05-14T12:53:31.789Z,2.12
2019-05-14T12:56:04.567Z,2.83
2019-05-14T12:58:42.831Z,1.70
2019-05-14T13:01:11.987Z,1.92
2019-05-14T13:03:48.347Z,2.05
2019-05-14T13:06:21.023Z,1.80
2019-05-14T13:08:53.779Z,2.35
2019-05-14T13:11:26.526Z,2.00
2019-05-14T13:13:59.422Z,2.05
2019-05-14T13:16:32.371Z,2.00
2019-05-14T13:19:05.161Z,2.55
2019-05-14T13:21:38.899Z,1.75
2019-05-14T13:24:11.910Z,2.02
2019-05-14T13:26:44.659Z,1.90
2019-05-14T13:29:19.388Z,2.12
2019-05-14T13:31:52.134Z,2.17
2019-05-14T13:34:24.795Z,2.50
2019-05-14T13:36:59.585Z,1.70
2019-05-14T13:39:32.029Z,2.22
2019-05-14T13:42:04.869Z,1.90
2019-05-14T13:44:38.518Z,2.27
2019-05-14T13:47:11.286Z,2.02
2019-05-14T13:49:43.871Z,2.10
2019-05-14T13:52:18.695Z,1.90
2019-05-14T13:54:51.372Z,1.77
2019-05-14T13:57:24.175Z,2.10
2019-05-14T13:59:58.889Z,2.10
2019-05-14T14:02:31.646Z,2.00
2019-05-14T14:05:05.184Z,2.15
2019-05-14T14:07:39.496Z,1.87
2019-05-14T14:10:14.069Z,2.00
2019-05-14T14:12:49.553Z,2.22
2019-05-14T14:15:24.029Z,2.00
2019-05-14T14:17:56.957Z,2.45
2019-05-14T14:20:29.939Z,2.10
2019-05-14T14:23:17.484Z,2.00
2019-05-14T14:25:39.496Z,2.22
2019-05-14T14:28:11.926Z,2.12
2019-05-14T14:30:45.769Z,1.60
2019-05-14T14:33:19.773Z,1.80
2019-05-14T14:35:52.563Z,1.85
2019-05-14T14:38:25.540Z,1.85
2019-05-14T14:40:59.470Z,2.08
2019-05-14T14:43:32.333Z,1.72
2019-05-14T14:46:11.209Z,1.85
2019-05-14T14:48:39.833Z,2.00
2019-05-14T14:51:12.680Z,1.92
2019-05-14T14:53:58.326Z,2.15
2019-05-14T14:56:20.058Z,1.67
2019-05-14T14:58:52.849Z,1.95
2019-05-14T15:01:30.052Z,1.95
2019-05-14T15:04:03.975Z,2.10
2019-05-14T15:06:39.771Z,1.70
2019-05-14T15:09:12.232Z,2.40
2019-05-14T15:11:44.931Z,1.77
2019-05-14T15:14:20.145Z,1.82
2019-05-14T15:16:52.443Z,2.37
2019-05-14T15:19:25.430Z,1.72
2019-05-14T15:21:59.408Z,2.55
2019-05-14T15:24:32.205Z,2.17
2019-05-14T15:27:09.398Z,2.42
2019-05-14T15:29:42.803Z,1.72
2019-05-14T15:32:14.409Z,1.60
2019-05-14T15:35:00.092Z,2.20
2019-05-14T15:37:32.943Z,1.75
2019-05-14T15:40:07.284Z,2.37
2019-05-14T15:42:39.930Z,4.33
2019-05-14T15:45:12.704Z,1.30
2019-05-14T15:47:45.417Z,1.90
2019-05-14T15:50:20.245Z,1.47
2019-05-14T15:52:53.092Z,3.35
2019-05-14T15:55:28.845Z,1.52
2019-05-14T15:58:03.546Z,1.55
2019-05-14T16:00:38.498Z,2.27
2019-05-14T16:03:11.108Z,1.87
2019-05-14T16:05:43.872Z,1.42
2019-05-14T16:08:18.838Z,1.67
2019-05-14T16:10:51.376Z,1.20
2019-05-14T16:13:24.053Z,1.82
2019-05-14T16:15:56.745Z,23.65
2019-05-14T16:18:29.638Z,1.60
2019-05-14T16:21:03.417Z,1.80
2019-05-14T16:23:38.602Z,1.50
2019-05-14T16:26:11.118Z,1.62
2019-05-14T16:28:43.930Z,1.82
2019-05-14T16:31:18.411Z,3.77
2019-05-14T16:33:52.653Z,2.00
2019-05-14T16:36:25.381Z,1.77
2019-05-14T16:38:58.598Z,1.90
2019-05-14T16:41:31.564Z,1.75
2019-05-14T16:44:05.394Z,2.00
2019-05-14T16:46:38.603Z,1.92
2019-05-14T16:49:11.502Z,1.67
2019-05-14T16:51:44.421Z,1.90
2019-05-14T16:54:18.401Z,1.37
2019-05-14T16:56:51.207Z,2.12
2019-05-14T16:59:24.004Z,1.50
2019-05-14T17:01:58.501Z,1.90
2019-05-14T17:04:31.279Z,1.60
2019-05-14T17:07:04.052Z,1.67
2019-05-14T17:09:38.503Z,1.80
2019-05-14T17:12:14.292Z,1.80
2019-05-14T17:14:47.319Z,5.67
2019-05-14T17:17:20.212Z,2.40
2019-05-14T17:19:52.947Z,1.42
2019-05-14T17:22:30.787Z,1.72
2019-05-14T17:25:02.718Z,1.10
2019-05-14T17:27:39.460Z,2.08
2019-05-14T17:30:12.472Z,2.30
2019-05-14T17:32:45.242Z,1.40
2019-05-14T17:35:19.618Z,1.45
2019-05-14T17:37:52.588Z,1.32
2019-05-14T17:40:25.317Z,1.50
2019-05-14T17:42:59.227Z,1.47
2019-05-14T17:45:32.197Z,1.42
2019-05-14T17:48:05.363Z,1.50
2019-05-14T17:50:38.586Z,1.30
2019-05-14T17:53:11.516Z,1.40
2019-05-14T17:55:47.536Z,1.65
2019-05-14T17:58:20.099Z,1.57
2019-05-14T18:00:52.838Z,1.20
2019-05-14T18:03:29.038Z,1.40
2019-05-14T18:06:02.138Z,1.60
2019-05-14T18:08:35.126Z,1.60
2019-05-14T18:11:08.793Z,1.40
2019-05-14T18:13:41.675Z,2.02
2019-05-14T18:16:15.672Z,1.75
2019-05-14T18:18:49.473Z,1.52
2019-05-14T18:21:22.620Z,1.85
2019-05-14T18:23:55.383Z,1.67
2019-05-14T18:26:29.081Z,1.65
2019-05-14T18:29:04.451Z,1.42
2019-05-14T18:31:43.109Z,1.50
2019-05-14T18:34:11.212Z,1.60
2019-05-14T18:36:43.975Z,1.90
2019-05-14T18:39:20.780Z,2.17
2019-05-14T18:41:52.428Z,2.25
2019-05-14T18:44:25.173Z,1.87
2019-05-14T18:46:59.341Z,1.52
2019-05-14T18:49:32.346Z,1.65
2019-05-14T18:52:05.074Z,1.60
2019-05-14T18:54:38.790Z,1.70
2019-05-14T18:57:12.202Z,1.80
2019-05-14T18:59:45.402Z,1.65
2019-05-14T19:02:18.520Z,1.90
2019-05-14T19:04:51.712Z,1.98
2019-05-14T19:07:28.734Z,2.12
2019-05-14T19:10:03.161Z,1.82
2019-05-14T19:12:38.707Z,2.02
2019-05-14T19:15:12.134Z,1.92
2019-05-14T19:17:44.932Z,1.75
2019-05-14T19:20:19.235Z,1.70
2019-05-14T19:22:52.252Z,1.57
2019-05-14T19:25:25.419Z,1.60
2019-05-14T19:27:58.408Z,1.75
2019-05-14T19:30:32.274Z,1.77
2019-05-14T19:33:05.058Z,1.82
2019-05-14T19:35:39.422Z,1.80
2019-05-14T19:38:12.485Z,1.80
2019-05-14T19:40:48.311Z,1.52
2019-05-14T19:43:20.895Z,1.90
2019-05-14T19:45:55.505Z,2.00
2019-05-14T19:48:30.512Z,1.77
2019-05-14T19:51:02.959Z,2.05
2019-05-14T19:53:35.750Z,2.00
2019-05-14T19:56:09.772Z,1.90
2019-05-14T19:58:42.730Z,1.70
2019-05-14T20:01:15.581Z,1.70
2019-05-14T20:03:48.345Z,1.90
2019-05-14T20:06:22.186Z,1.90
2019-05-14T20:08:54.950Z,1.90
2019-05-14T20:11:29.018Z,2.00
2019-05-14T20:14:01.914Z,1.80
2019-05-14T20:16:34.640Z,2.10
2019-05-14T20:19:08.826Z,2.37
2019-05-14T20:21:41.653Z,2.27
2019-05-14T20:24:14.543Z,2.00
2019-05-14T20:27:03.514Z,1.98
2019-05-14T20:29:23.842Z,1.87
2019-05-14T20:31:59.455Z,1.90
2019-05-14T20:34:31.259Z,2.43
2019-05-14T20:37:05.092Z,2.20
2019-05-14T20:39:39.775Z,1.97
2019-05-14T20:42:12.526Z,2.27
2019-05-14T20:44:45.278Z,2.20
2019-05-14T20:47:19.887Z,2.40
2019-05-14T20:49:52.664Z,2.77
2019-05-14T20:52:25.341Z,2.23
2019-05-14T20:54:58.390Z,2.47
2019-05-14T20:57:33.461Z,2.37
2019-05-14T21:00:08.162Z,2.00
2019-05-14T21:02:41.156Z,2.37
2019-05-14T21:05:14.069Z,2.40
2019-05-14T21:07:49.148Z,2.40
2019-05-14T21:10:21.620Z,2.43
2019-05-14T21:12:58.083Z,2.33
2019-05-14T21:15:30.780Z,3.10
2019-05-14T21:18:03.531Z,2.50
2019-05-14T21:20:36.238Z,2.50
2019-05-14T21:23:09.096Z,2.53
2019-05-14T21:25:42.046Z,2.63
2019-05-14T21:28:14.769Z,2.60
2019-05-14T21:30:48.525Z,2.50
2019-05-14T21:33:21.564Z,2.50
2019-05-14T21:35:54.332Z,2.70
2019-05-14T21:38:28.653Z,2.37
2019-05-14T21:41:01.610Z,2.63
2019-05-14T21:43:34.421Z,2.80
2019-05-14T21:46:08.141Z,2.20
2019-05-14T21:48:41.990Z,2.27
2019-05-14T21:51:14.724Z,2.47
2019-05-14T21:53:48.305Z,2.50
2019-05-14T21:56:21.853Z,2.77
2019-05-14T21:58:54.807Z,2.73
2019-05-14T22:01:30.978Z,2.73
2019-05-14T22:04:03.063Z,2.93
2019-05-14T22:06:37.826Z,3.07
2019-05-14T22:09:11.676Z,3.20
2019-05-14T22:11:44.477Z,2.63
2019-05-14T22:14:18.782Z,2.77
2019-05-14T22:16:51.594Z,2.60
2019-05-14T22:19:24.348Z,2.70
2019-05-14T22:21:58.668Z,2.70
2019-05-14T22:24:31.471Z,2.50
2019-05-14T22:27:05.206Z,2.60
2019-05-14T22:29:39.634Z,2.70
2019-05-14T22:32:12.406Z,2.50
2019-05-14T22:34:45.172Z,2.63
2019-05-14T22:37:19.957Z,2.70
2019-05-14T22:39:52.502Z,2.63
2019-05-14T22:42:25.246Z,2.30
2019-05-14T22:44:58.425Z,2.40
2019-05-14T22:47:31.323Z,2.27
2019-05-14T22:50:05.653Z,2.30
2019-05-14T22:52:38.820Z,2.30
2019-05-14T22:55:12.327Z,2.60
2019-05-14T22:57:44.961Z,2.57
2019-05-14T23:00:20.724Z,2.10
2019-05-14T23:02:52.776Z,2.40
2019-05-14T23:05:25.382Z,2.13
2019-05-14T23:08:01.053Z,2.33
2019-05-14T23:10:33.681Z,2.40
2019-05-14T23:13:09.399Z,2.30
2019-05-14T23:15:42.290Z,2.40
2019-05-14T23:18:14.948Z,2.23
2019-05-14T23:20:49.403Z,2.20
2019-05-14T23:23:22.210Z,2.13
2019-05-14T23:25:58.903Z,2.00
2019-05-14T23:28:42.593Z,2.17
2019-05-14T23:31:08.471Z,2.40
2019-05-14T23:33:43.017Z,2.40
2019-05-14T23:36:18.190Z,2.30
2019-05-14T23:38:50.322Z,2.70
2019-05-14T23:41:23.038Z,2.63
2019-05-14T23:43:55.721Z,2.47
2019-05-14T23:46:29.172Z,2.30
2019-05-14T23:49:02.182Z,2.53
2019-05-14T23:51:34.838Z,2.33
2019-05-14T23:54:08.983Z,2.20
2019-05-14T23:56:45.844Z,2.30
2019-05-14T23:59:18.604Z,2.10
